Terminal Aerodrome Forecast
Issued by NWS

Current Version | Previous Version | Text Only | Print | Product List | Glossary Off
Versions: 1 2 3 4 5 6 7 8 9 10 11 12 13 14 15 16 17 18 19

000
FTUS41 KILN 282300
TAFLCK
TAF
KLCK 282339Z 2900/2924 32008KT P6SM SCT045 BKN080
     FM290400 32003KT P6SM SCT040
     FM291500 29007KT P6SM BKN045=

USA.gov is the U.S. government's official web portal to all federal, state and local government web resources and services.